createdAt,value
2022-12-14T00:02:06.561Z,10.13
2022-12-14T00:07:07.995Z,12.93
2022-12-14T00:12:09.452Z,12.25
2022-12-14T00:17:10.965Z,9.80
2022-12-14T00:22:12.328Z,10.35
2022-12-14T00:27:13.812Z,12.73
2022-12-14T00:32:15.159Z,8.85
2022-12-14T00:37:16.503Z,10.90
2022-12-14T00:42:17.869Z,8.55
2022-12-14T00:47:19.219Z,10.32
2022-12-14T00:52:21.438Z,11.73
2022-12-14T00:57:22.811Z,13.27
2022-12-14T01:02:24.326Z,12.32
2022-12-14T01:07:25.813Z,14.60
2022-12-14T01:12:27.231Z,9.77
2022-12-14T01:17:28.583Z,12.80
2022-12-14T01:22:30.070Z,9.20
2022-12-14T01:27:31.681Z,8.85
2022-12-14T01:32:34.677Z,9.70
2022-12-14T01:37:36.016Z,8.18
2022-12-14T01:42:37.841Z,13.68
2022-12-14T01:47:48.294Z,10.00
2022-12-14T01:52:54.479Z,9.43
2022-12-14T01:58:14.851Z,9.13
2022-12-14T02:03:21.526Z,9.40
2022-12-14T02:08:24.313Z,7.35
2022-12-14T02:13:35.404Z,8.55
2022-12-14T02:18:36.846Z,9.18
2022-12-14T02:23:57.550Z,13.35
2022-12-14T02:29:26.811Z,8.05
2022-12-14T02:34:52.648Z,9.52
2022-12-14T02:40:05.971Z,9.05
2022-12-14T02:45:17.478Z,7.72
2022-12-14T02:50:54.651Z,9.80
2022-12-14T02:56:01.523Z,11.00
2022-12-14T03:01:04.159Z,8.13
2022-12-14T03:06:14.727Z,11.75
2022-12-14T03:11:24.884Z,10.27
2022-12-14T03:16:43.073Z,9.88
2022-12-14T03:21:50.313Z,7.07
2022-12-14T03:27:05.205Z,10.73
2022-12-14T03:32:12.043Z,11.25
2022-12-14T03:37:24.425Z,10.05
2022-12-14T03:42:30.546Z,7.03
2022-12-14T03:47:53.710Z,9.43
2022-12-14T03:53:34.058Z,6.43
2022-12-14T03:59:10.765Z,8.48
2022-12-14T04:04:27.178Z,8.10
2022-12-14T04:09:39.951Z,9.43
2022-12-14T04:15:09.834Z,8.52
2022-12-14T04:20:19.698Z,7.20
2022-12-14T04:25:45.407Z,9.27
2022-12-14T04:30:47.062Z,8.35
2022-12-14T04:35:50.625Z,10.02
2022-12-14T04:40:55.533Z,9.95
2022-12-14T04:46:06.753Z,6.88
2022-12-14T04:51:27.170Z,8.65
2022-12-14T04:56:40.181Z,7.68
2022-12-14T05:02:00.153Z,11.55
2022-12-14T05:07:06.483Z,10.38
2022-12-14T05:12:20.025Z,10.32
2022-12-14T05:17:21.450Z,8.93
2022-12-14T05:22:22.889Z,7.60
2022-12-14T05:27:24.225Z,9.27
2022-12-14T05:32:28.494Z,10.07
2022-12-14T05:37:29.918Z,7.70
2022-12-14T05:42:31.414Z,5.97
2022-12-14T05:47:32.799Z,7.43
2022-12-14T05:52:34.405Z,10.13
2022-12-14T05:57:35.762Z,9.00
2022-12-14T06:02:37.179Z,8.30
2022-12-14T06:07:39.618Z,8.45
2022-12-14T06:12:40.958Z,12.27
2022-12-14T06:17:46.735Z,8.90
2022-12-14T06:22:48.091Z,11.20
2022-12-14T06:27:54.378Z,9.80
2022-12-14T06:32:55.716Z,8.93
2022-12-14T06:37:57.053Z,8.77
2022-12-14T06:42:58.411Z,8.25
2022-12-14T06:47:59.821Z,8.82
2022-12-14T06:53:01.610Z,12.68
2022-12-14T06:58:02.953Z,10.15
2022-12-14T07:03:04.439Z,9.68
2022-12-14T07:08:06.015Z,10.02
2022-12-14T07:13:07.341Z,8.43
2022-12-14T07:18:08.713Z,9.95
2022-12-14T07:23:10.381Z,8.30
2022-12-14T07:28:11.755Z,12.85
2022-12-14T07:33:13.146Z,16.58
2022-12-14T07:38:14.500Z,13.05
2022-12-14T07:43:15.974Z,11.80
2022-12-14T07:48:17.423Z,12.15
2022-12-14T07:53:18.896Z,15.77
2022-12-14T07:58:20.330Z,14.93
2022-12-14T08:03:21.772Z,10.65
2022-12-14T08:08:23.208Z,13.30
2022-12-14T08:13:24.603Z,14.63
2022-12-14T08:18:26.002Z,10.50
2022-12-14T08:23:28.025Z,11.07
2022-12-14T08:28:31.170Z,10.48
2022-12-14T08:33:34.288Z,10.73
2022-12-14T08:38:36.428Z,11.55
2022-12-14T08:43:38.383Z,11.13
2022-12-14T08:48:39.715Z,12.38
2022-12-14T08:53:41.208Z,10.65
2022-12-14T08:58:42.662Z,13.73
2022-12-14T09:03:45.514Z,10.68
2022-12-14T09:08:47.272Z,13.50
2022-12-14T09:13:55.336Z,9.05
2022-12-14T09:18:56.785Z,9.65
2022-12-14T09:23:59.784Z,12.80
2022-12-14T09:29:01.473Z,12.57
2022-12-14T09:34:03.867Z,11.60
2022-12-14T09:39:05.290Z,12.90
2022-12-14T09:44:35.650Z,10.73
2022-12-14T09:49:51.225Z,10.07
2022-12-14T09:54:54.532Z,11.60
2022-12-14T09:59:56.732Z,14.45
2022-12-14T10:05:17.027Z,11.30
2022-12-14T10:10:31.699Z,13.65
2022-12-14T10:15:59.851Z,14.15
2022-12-14T10:21:16.047Z,10.75
2022-12-14T10:26:20.507Z,10.48
2022-12-14T10:31:33.459Z,16.38
2022-12-14T10:36:44.639Z,14.20
2022-12-14T10:41:57.831Z,12.23
2022-12-14T10:47:37.346Z,13.55
2022-12-14T10:52:42.079Z,16.95
2022-12-14T10:57:43.441Z,13.88
2022-12-14T11:02:50.112Z,12.63
2022-12-14T11:07:52.158Z,14.87
2022-12-14T11:13:15.422Z,11.82
2022-12-14T11:18:16.903Z,14.93
2022-12-14T11:23:54.057Z,17.20
2022-12-14T11:29:00.468Z,17.00
2022-12-14T11:34:04.091Z,11.77
2022-12-14T11:39:09.916Z,11.05
2022-12-14T11:44:14.047Z,12.23
2022-12-14T11:49:33.651Z,16.42
2022-12-14T11:54:38.481Z,15.27
2022-12-14T11:59:45.956Z,12.88
2022-12-14T12:04:53.671Z,13.13
2022-12-14T12:14:58.859Z,11.55
2022-12-14T12:20:00.238Z,13.63
2022-12-14T12:30:29.590Z,13.43
2022-12-14T12:35:49.970Z,14.35
2022-12-14T12:41:06.714Z,13.15
2022-12-14T12:46:32.186Z,12.15
2022-12-14T12:51:42.653Z,11.25
2022-12-14T12:56:48.893Z,10.27
2022-12-14T13:01:54.711Z,14.35
2022-12-14T13:07:15.151Z,12.80
2022-12-14T13:12:28.355Z,14.23
2022-12-14T13:17:32.454Z,12.20
2022-12-14T13:22:36.368Z,10.40
2022-12-14T13:27:55.087Z,13.45
2022-12-14T13:33:07.746Z,12.85
2022-12-14T13:38:33.642Z,10.75
2022-12-14T13:44:04.356Z,10.63
2022-12-14T13:49:17.645Z,10.95
2022-12-14T13:54:28.642Z,10.82
2022-12-14T13:59:36.797Z,13.85
2022-12-14T14:04:38.260Z,9.35
2022-12-14T14:10:04.614Z,15.50
2022-12-14T14:15:08.706Z,11.02
2022-12-14T14:20:34.866Z,14.32
2022-12-14T14:26:10.213Z,15.38
2022-12-14T14:31:11.906Z,14.07
2022-12-14T14:36:23.308Z,13.32
2022-12-14T14:41:29.923Z,13.30
2022-12-14T14:46:47.522Z,17.02
2022-12-14T14:51:49.208Z,13.98
2022-12-14T14:56:51.752Z,13.27
2022-12-14T15:01:57.928Z,14.93
2022-12-14T15:07:05.412Z,19.38
2022-12-14T15:12:33.170Z,15.75
2022-12-14T15:17:34.558Z,16.05
2022-12-14T15:22:45.733Z,20.13
2022-12-14T15:27:47.855Z,20.90
2022-12-14T15:33:02.810Z,25.02
2022-12-14T15:38:25.568Z,16.88
2022-12-14T15:43:28.434Z,18.90
2022-12-14T15:48:34.062Z,20.17
2022-12-14T15:53:51.037Z,19.75
2022-12-14T15:58:53.364Z,16.73
2022-12-14T16:03:58.767Z,22.30
2022-12-14T16:09:12.794Z,19.98
2022-12-14T16:14:26.012Z,36.42
2022-12-14T16:19:45.037Z,28.45
2022-12-14T16:25:06.039Z,27.73
2022-12-14T16:30:17.762Z,22.92
2022-12-14T16:35:24.850Z,21.00
2022-12-14T16:40:31.916Z,17.60
2022-12-14T16:45:56.363Z,15.88
2022-12-14T16:51:28.618Z,20.08
2022-12-14T16:56:45.430Z,24.98
2022-12-14T17:01:48.855Z,26.70
2022-12-14T17:06:55.924Z,27.38
2022-12-14T17:12:00.138Z,22.77
2022-12-14T17:17:02.262Z,25.95
2022-12-14T17:22:06.598Z,29.40
2022-12-14T17:27:08.097Z,25.65
2022-12-14T17:32:12.921Z,31.60
2022-12-14T17:37:20.738Z,32.88
2022-12-14T17:42:22.603Z,28.27
2022-12-14T17:47:25.093Z,28.17
2022-12-14T17:52:31.991Z,44.38
2022-12-14T17:57:33.645Z,71.03
2022-12-14T18:02:36.010Z,63.28
2022-12-14T18:07:37.805Z,68.65
2022-12-14T18:12:39.389Z,31.88
2022-12-14T18:17:41.008Z,24.38
2022-12-14T18:22:42.932Z,24.80
2022-12-14T18:27:51.899Z,20.52
2022-12-14T18:32:55.175Z,25.88
2022-12-14T18:37:56.855Z,21.85
2022-12-14T18:42:58.521Z,23.35
2022-12-14T18:48:01.278Z,32.42
2022-12-14T18:53:03.086Z,23.38
2022-12-14T18:58:05.496Z,25.65
2022-12-14T19:03:07.177Z,27.92
2022-12-14T19:08:10.368Z,30.52
2022-12-14T19:13:23.430Z,26.85
2022-12-14T19:18:27.491Z,30.85
2022-12-14T19:23:31.767Z,34.65
2022-12-14T19:28:33.792Z,27.75
2022-12-14T19:33:36.245Z,28.95
2022-12-14T19:38:38.429Z,33.45
2022-12-14T19:43:39.930Z,32.90
2022-12-14T19:48:42.315Z,32.90
2022-12-14T19:53:45.906Z,40.78
2022-12-14T19:58:47.967Z,43.95
2022-12-14T20:03:49.661Z,39.40
2022-12-14T20:08:51.265Z,38.50
2022-12-14T20:13:58.888Z,40.47
2022-12-14T20:19:03.010Z,50.42
2022-12-14T20:24:04.726Z,49.53
2022-12-14T20:29:06.872Z,47.08
2022-12-14T20:34:09.922Z,39.15
2022-12-14T20:39:11.479Z,31.70
2022-12-14T20:44:13.853Z,31.48
2022-12-14T20:49:19.038Z,38.47
2022-12-14T20:54:22.261Z,42.47
2022-12-14T20:59:23.717Z,28.40
2022-12-14T21:04:25.194Z,24.80
2022-12-14T21:09:26.584Z,22.17
2022-12-14T21:14:30.988Z,20.73
2022-12-14T21:19:33.087Z,34.53
2022-12-14T21:25:01.541Z,39.65
2022-12-14T21:30:03.228Z,31.95
2022-12-14T21:35:05.651Z,39.10
2022-12-14T21:40:08.327Z,25.50
2022-12-14T21:45:11.074Z,27.85
2022-12-14T21:50:12.447Z,20.90
2022-12-14T21:55:13.842Z,21.58
2022-12-14T22:00:15.340Z,29.85
2022-12-14T22:05:16.765Z,27.58
2022-12-14T22:10:24.442Z,36.35
2022-12-14T22:15:26.435Z,29.63
2022-12-14T22:20:27.841Z,35.50
2022-12-14T22:25:29.223Z,25.55
2022-12-14T22:30:32.007Z,24.25
2022-12-14T22:35:33.999Z,28.10
2022-12-14T22:40:35.412Z,28.02
2022-12-14T22:45:36.784Z,26.92
2022-12-14T22:50:38.209Z,29.50
2022-12-14T22:55:39.879Z,20.67
2022-12-14T23:00:41.405Z,24.05
2022-12-14T23:05:42.757Z,24.95
2022-12-14T23:11:03.566Z,23.40
2022-12-14T23:16:24.067Z,24.35
2022-12-14T23:21:44.167Z,28.05
2022-12-14T23:27:09.116Z,25.05
2022-12-14T23:32:29.624Z,30.67
2022-12-14T23:37:49.504Z,27.88
2022-12-14T23:43:09.306Z,29.25
2022-12-14T23:48:28.955Z,27.10
2022-12-14T23:53:49.923Z,30.80
2022-12-14T23:59:13.784Z,24.20
